^^
MeteoGriva-Weather Station Historical Data
Daily Summary for October 23, 2020 Units:  Metric    English   Both
Daily Weekly Monthly Yearly Custom
  High: Low: Average:
Temperature: 24.4 °C 14.5 °C 18.6 °C
Dew Point: 15.4 °C 8.8 °C 12.3 °C
Humidity: 78.9% 52.1% 67%
Wind Speed: 2.9km/h 0km/h 0.1km/h
Wind Gust: 12.2km/h - -
Wind- - SSE
Pressure: 1021.3 hPa 1015.9 hPa -
Precipitation: 0.0 mm    
Historical Graphs
 
 
Tabular Data for October 23, 2020
Time Temperature Dew Point Pressure Wind Wind Speed Wind Gust Humidity Rainfall Rate (Hourly) solar
00:04 16.3 °C 11.3 °C 1021.3 hPa Calm     72.3% 0.0 mm 0 W/m2
00:09 16.3 °C 11.5 °C 1021.3 hPa Calm     73.3% 0.0 mm 0 W/m2
00:14 16.2 °C 11.4 °C 1021.3 hPa Calm     73% 0.0 mm 0 W/m2
00:19 16.2 °C 11.3 °C 1021.3 hPa Calm     72.7% 0.0 mm 0 W/m2
00:24 16.4 °C 11.3 °C 1021.3 hPa Calm     71.8% 0.0 mm 0 W/m2
00:29 16.4 °C 11.4 °C 1021.3 hPa Calm     72.3% 0.0 mm 0 W/m2
00:34 16.3 °C 11.6 °C 1021.3 hPa Calm     73.7% 0.0 mm 0 W/m2
00:39 16.2 °C 11.6 °C 1021.3 hPa Calm     74% 0.0 mm 0 W/m2
00:44 15.9 °C 11.1 °C 1021.3 hPa Calm     73% 0.0 mm 0 W/m2
00:49 15.9 °C 10.9 °C 1021.3 hPa Calm     72% 0.0 mm 0 W/m2
00:54 16 °C 11.2 °C 1021.3 hPa Calm     73% 0.0 mm 0 W/m2
00:59 16 °C 11.3 °C 1021.3 hPa Calm     73.2% 0.0 mm 0 W/m2
01:04 15.7 °C 11.1 °C 1021.3 hPa Calm     74% 0.0 mm 0 W/m2
01:09 15.7 °C 11.1 °C 1021.3 hPa Calm     74.2% 0.0 mm 0 W/m2
01:14 15.7 °C 11.3 °C 1021.3 hPa Calm     75.3% 0.0 mm 0 W/m2
01:19 15.6 °C 11.2 °C 1021.3 hPa Calm     74.8% 0.0 mm 0 W/m2
01:24 15.8 °C 11 °C 1021.3 hPa Calm     73.3% 0.0 mm 0 W/m2
01:29 15.8 °C 11 °C 1021.3 hPa Calm     73% 0.0 mm 0 W/m2
01:34 15.8 °C 11 °C 1021.0 hPa Calm     73% 0.0 mm 0 W/m2
01:39 15.8 °C 11.2 °C 1021.3 hPa Calm     74% 0.0 mm 0 W/m2
01:44 15.8 °C 11.4 °C 1021.0 hPa Calm     75% 0.0 mm 0 W/m2
01:49 15.8 °C 11.2 °C 1021.0 hPa Calm     74.1% 0.0 mm 0 W/m2
01:54 15.8 °C 11.2 °C 1021.0 hPa Calm     74% 0.0 mm 0 W/m2
01:59 15.8 °C 11.3 °C 1021.0 hPa Calm     74.7% 0.0 mm 0 W/m2
02:04 15.9 °C 11.4 °C 1021.0 hPa Calm     74.7% 0.0 mm 0 W/m2
02:09 15.8 °C 11.5 °C 1021.0 hPa Calm     75.4% 0.0 mm 0 W/m2
02:14 15.8 °C 11.7 °C 1021.0 hPa Calm     76.8% 0.0 mm 0 W/m2
02:19 15.7 °C 11.7 °C 1020.7 hPa Calm     77.1% 0.0 mm 0 W/m2
02:24 15.5 °C 11.5 °C 1021.0 hPa Calm     76.7% 0.0 mm 0 W/m2
02:29 15.5 °C 11.4 °C 1021.0 hPa Calm     76.3% 0.0 mm 0 W/m2
02:34 15.5 °C 11.3 °C 1020.7 hPa Calm     76.2% 0.0 mm 0 W/m2
02:39 15.6 °C 11.4 °C 1020.7 hPa Calm     75.9% 0.0 mm 0 W/m2
02:44 15.7 °C 11.3 °C 1020.7 hPa Calm     75% 0.0 mm 0 W/m2
02:49 15.7 °C 11.5 °C 1020.7 hPa Calm     75.9% 0.0 mm 0 W/m2
02:54 15.6 °C 11.5 °C 1020.7 hPa Calm     76.6% 0.0 mm 0 W/m2
02:59 15.6 °C 11.3 °C 1020.7 hPa Calm     75.6% 0.0 mm 0 W/m2
03:04 15.7 °C 11.3 °C 1020.7 hPa Calm     75% 0.0 mm 0 W/m2
03:09 15.7 °C 11.3 °C 1020.7 hPa Calm     75% 0.0 mm 0 W/m2
03:14 15.7 °C 11.5 °C 1020.7 hPa Calm     76% 0.0 mm 0 W/m2
03:19 15.7 °C 11.5 °C 1020.7 hPa Calm     76.2% 0.0 mm 0 W/m2
03:24 15.1 °C 11.3 °C 1020.7 hPa Calm     77.9% 0.0 mm 0 W/m2
03:29 15 °C 11.2 °C 1020.7 hPa Calm     78% 0.0 mm 0 W/m2
03:34 15 °C 11.2 °C 1020.7 hPa Calm     77.8% 0.0 mm 0 W/m2
03:39 15 °C 11 °C 1020.7 hPa Calm     77% 0.0 mm 0 W/m2
03:44 15.2 °C 11.2 °C 1020.7 hPa Calm     77% 0.0 mm 0 W/m2
03:49 15.2 °C 11.1 °C 1020.7 hPa Calm     76.4% 0.0 mm 0 W/m2
03:54 15.3 °C 11 °C 1020.7 hPa Calm     75.4% 0.0 mm 0 W/m2
03:59 15.3 °C 10.9 °C 1020.3 hPa Calm     75% 0.0 mm 0 W/m2
04:04 15.4 °C 11.2 °C 1020.3 hPa Calm     75.8% 0.0 mm 0 W/m2
04:09 15.4 °C 11.2 °C 1020.3 hPa Calm     76% 0.0 mm 0 W/m2
04:14 15.4 °C 11.2 °C 1020.3 hPa Calm     76% 0.0 mm 0 W/m2
04:19 15.4 °C 11.2 °C 1020.3 hPa Calm     76% 0.0 mm 0 W/m2
04:24 15.3 °C 11.2 °C 1020.3 hPa Calm     76.7% 0.0 mm 0 W/m2
04:29 15.1 °C 11.4 °C 1020.3 hPa Calm     78.7% 0.0 mm 0 W/m2
04:34 15 °C 11.3 °C 1020.3 hPa Calm     78.7% 0.0 mm 0 W/m2
04:39 14.9 °C 11.2 °C 1020.3 hPa Calm     78.6% 0.0 mm 0 W/m2
04:44 14.7 °C 11.1 °C 1020.0 hPa Calm     78.9% 0.0 mm 0 W/m2
04:49 14.6 °C 10.8 °C 1020.3 hPa Calm     77.9% 0.0 mm 0 W/m2
04:54 14.6 °C 10.8 °C 1020.3 hPa Calm     78% 0.0 mm 0 W/m2
04:59 14.6 °C 10.8 °C 1020.3 hPa Calm     78.2% 0.0 mm 0 W/m2
05:04 14.6 °C 10.9 °C 1020.3 hPa Calm     78.3% 0.0 mm 0 W/m2
05:09 14.6 °C 10.6 °C 1020.3 hPa Calm     77% 0.0 mm 0 W/m2
05:14 14.6 °C 10.6 °C 1020.3 hPa Calm     77.1% 0.0 mm 0 W/m2
05:19 14.7 °C 10.3 °C 1020.3 hPa Calm     75.1% 0.0 mm 0 W/m2
05:24 14.6 °C 10.2 °C 1020.3 hPa Calm     74.9% 0.0 mm 0 W/m2
05:29 14.5 °C 9.8 °C 1020.3 hPa Calm     73.7% 0.0 mm 0 W/m2
05:34 14.5 °C 9.5 °C 1020.0 hPa Calm     72% 0.0 mm 0 W/m2
05:39 14.5 °C 9.4 °C 1020.0 hPa Calm     71.3% 0.0 mm 0 W/m2
05:44 14.7 °C 9.4 °C 1020.0 hPa Calm     70% 0.0 mm 0 W/m2
05:49 15 °C 9.6 °C 1020.3 hPa Calm     70% 0.0 mm 0 W/m2
05:54 15 °C 9.6 °C 1020.0 hPa Calm     69.9% 0.0 mm 0 W/m2
05:59 15 °C 9.7 °C 1020.0 hPa Calm     70.7% 0.0 mm 0 W/m2
06:04 14.9 °C 9.9 °C 1020.3 hPa Calm     72.1% 0.0 mm 0 W/m2
06:09 14.6 °C 9.3 °C 1020.0 hPa Calm     70.7% 0.0 mm 0 W/m2
06:14 14.6 °C 9 °C 1020.0 hPa Calm     69% 0.0 mm 0 W/m2
06:19 14.7 °C 9.2 °C 1020.3 hPa Calm     69.6% 0.0 mm 0 W/m2
06:24 15 °C 9.3 °C 1020.3 hPa Calm     68.7% 0.0 mm 0 W/m2
06:29 15.2 °C 9.5 °C 1020.3 hPa Calm     68.8% 0.0 mm 0 W/m2
06:34 15.3 °C 9.4 °C 1020.3 hPa Calm     68% 0.0 mm 0 W/m2
06:39 15.3 °C 9.4 °C 1020.3 hPa Calm     68% 0.0 mm 0 W/m2
06:44 15.1 °C 9.5 °C 1020.7 hPa Calm     68.8% 0.0 mm 0 W/m2
06:49 14.9 °C 9.3 °C 1020.7 hPa WNW 0.1 km/h 4 km/h 69% 0.0 mm 0 W/m2
06:54 14.9 °C 9.3 °C 1020.3 hPa Calm   4 km/h 69% 0.0 mm 0 W/m2
06:59 14.9 °C 9 °C 1020.3 hPa Calm     68.1% 0.0 mm 0 W/m2
07:04 15.2 °C 9.1 °C 1020.3 hPa Calm     67% 0.0 mm 0 W/m2
07:09 15.5 °C 9.4 °C 1020.3 hPa Calm     67% 0.0 mm 0 W/m2
07:14 15.5 °C 9.4 °C 1020.3 hPa Calm     67% 0.0 mm 0 W/m2
07:19 15.5 °C 9.4 °C 1020.3 hPa Calm     67% 0.0 mm 0 W/m2
07:24 15.6 °C 9.4 °C 1020.0 hPa Calm     66.6% 0.0 mm 0 W/m2
07:29 15.7 °C 9.5 °C 1020.0 hPa Calm     66.7% 0.0 mm 0 W/m2
07:34 15.7 °C 9.5 °C 1020.3 hPa Calm     66.4% 0.0 mm 0 W/m2
07:39 15.7 °C 9.7 °C 1020.0 hPa Calm     67.7% 0.0 mm 0 W/m2
07:44 15.5 °C 9.7 °C 1020.3 hPa Calm     68.3% 0.0 mm 0 W/m2
07:49 15 °C 9.5 °C 1020.3 hPa Calm     69.3% 0.0 mm 0 W/m2
07:54 15 °C 9.6 °C 1020.3 hPa Calm     70% 0.0 mm 4 W/m2
07:59 14.9 °C 9.8 °C 1020.3 hPa Calm     71.2% 0.0 mm 7 W/m2
08:04 14.9 °C 9.4 °C 1020.3 hPa Calm     69.6% 0.0 mm 13 W/m2
08:09 15 °C 9.4 °C 1020.3 hPa Calm     69.2% 0.0 mm 20 W/m2
08:14 15 °C 9.4 °C 1020.3 hPa Calm     69.2% 0.0 mm 27 W/m2
08:19 15.1 °C 9.3 °C 1020.3 hPa Calm     68.1% 0.0 mm 34 W/m2
08:24 15.5 °C 9.2 °C 1020.3 hPa Calm     65.9% 0.0 mm 40 W/m2
08:29 16.6 °C 10 °C 1020.3 hPa Calm     64.9% 0.0 mm 45 W/m2
08:34 16.8 °C 9.2 °C 1020.3 hPa Calm     61% 0.0 mm 51 W/m2
08:39 17.2 °C 8.8 °C 1020.3 hPa Calm     57.7% 0.0 mm 56 W/m2
08:44 17.9 °C 9.6 °C 1020.7 hPa Calm     58.3% 0.0 mm 61 W/m2
08:49 20.2 °C 11.3 °C 1020.7 hPa Calm     56.8% 0.0 mm 65 W/m2
08:54 20.2 °C 11.5 °C 1020.7 hPa Calm     57.6% 0.0 mm 69 W/m2
08:59 19.8 °C 12.5 °C 1020.7 hPa Calm     62.7% 0.0 mm 109 W/m2
09:04 19.4 °C 12.6 °C 1020.7 hPa Calm     64.5% 0.0 mm 110 W/m2
09:09 17.7 °C 10.8 °C 1020.7 hPa Calm     63.9% 0.0 mm 78 W/m2
09:14 17.7 °C 10.9 °C 1020.7 hPa Calm     64.3% 0.0 mm 80 W/m2
09:19 17.7 °C 10.8 °C 1021.0 hPa Calm     63.9% 0.0 mm 82 W/m2
09:24 17.8 °C 10.6 °C 1021.0 hPa Calm     62.4% 0.0 mm 84 W/m2
09:29 19.5 °C 11.9 °C 1020.7 hPa Calm     61.3% 0.0 mm 86 W/m2
09:34 19.5 °C 11.3 °C 1021.0 hPa Calm     59.2% 0.0 mm 87 W/m2
09:39 19.7 °C 11 °C 1020.7 hPa Calm     57.2% 0.0 mm 88 W/m2
09:44 19.9 °C 11.5 °C 1020.7 hPa Calm     58.3% 0.0 mm 89 W/m2
09:49 20.8 °C 12.3 °C 1021.0 hPa Calm     58.2% 0.0 mm 90 W/m2
09:54 20.7 °C 12.3 °C 1021.0 hPa Calm     58.6% 0.0 mm 91 W/m2
09:59 20.7 °C 12.3 °C 1020.7 hPa Calm     58.7% 0.0 mm 92 W/m2
10:04 20.7 °C 12.4 °C 1020.7 hPa Calm     58.9% 0.0 mm 92 W/m2
10:09 20.7 °C 12.6 °C 1021.0 hPa Calm     59.4% 0.0 mm 93 W/m2
10:14 20.7 °C 12.4 °C 1020.7 hPa Calm     58.9% 0.0 mm 94 W/m2
10:19 20.7 °C 12.5 °C 1020.7 hPa Calm     59.4% 0.0 mm 97 W/m2
10:24 20.7 °C 12.5 °C 1020.7 hPa Calm     59.2% 0.0 mm 99 W/m2
10:29 21.4 °C 12.8 °C 1021.0 hPa Calm     58.1% 0.0 mm 102 W/m2
10:34 21.3 °C 13.7 °C 1021.0 hPa Calm     62.1% 0.0 mm 105 W/m2
10:39 21.2 °C 13.9 °C 1020.7 hPa Calm     63.2% 0.0 mm 108 W/m2
10:44 21 °C 14.1 °C 1020.7 hPa Calm     65% 0.0 mm 112 W/m2
10:49 20 °C 13.6 °C 1020.7 hPa Calm     66.4% 0.0 mm 116 W/m2
10:54 19.9 °C 13.5 °C 1020.7 hPa Calm     66.8% 0.0 mm 121 W/m2
10:59 20 °C 13 °C 1020.7 hPa Calm     64.1% 0.0 mm 126 W/m2
11:04 20.1 °C 13.1 °C 1021.0 hPa Calm     63.9% 0.0 mm 132 W/m2
11:09 21.3 °C 13.9 °C 1020.7 hPa Calm     63% 0.0 mm 137 W/m2
11:14 21.4 °C 14.1 °C 1020.7 hPa Calm     63.2% 0.0 mm 143 W/m2
11:19 21.3 °C 14.1 °C 1020.7 hPa Calm   4 km/h 63.7% 0.0 mm 149 W/m2
11:24 21.2 °C 14.4 °C 1020.7 hPa Calm   4 km/h 65% 0.0 mm 157 W/m2
11:29 21.2 °C 14.1 °C 1020.7 hPa Calm     63.8% 0.0 mm 161 W/m2
11:34 21.3 °C 14.1 °C 1020.7 hPa Calm     63.4% 0.0 mm 168 W/m2
11:39 21.2 °C 14.3 °C 1020.3 hPa Calm   4 km/h 64.6% 0.0 mm 175 W/m2
11:44 21.2 °C 14.3 °C 1020.3 hPa SE 0.9 km/h 7.9 km/h 64.9% 0.0 mm 180 W/m2
11:49 20.9 °C 14.2 °C 1020.3 hPa SSE 0.4 km/h 7.9 km/h 65.7% 0.0 mm 189 W/m2
11:54 20.9 °C 13.8 °C 1020.3 hPa Calm   4 km/h 63.8% 0.0 mm 197 W/m2
11:59 21 °C 13.7 °C 1020.3 hPa SSE 0.1 km/h 4 km/h 62.9% 0.0 mm 205 W/m2
12:04 21.2 °C 13.8 °C 1020.7 hPa ESE 0.3 km/h 4 km/h 62.9% 0.0 mm 214 W/m2
12:09 21.6 °C 14.1 °C 1020.3 hPa Calm   4 km/h 62.6% 0.0 mm 224 W/m2
12:14 21.6 °C 14.4 °C 1020.0 hPa Calm     63.5% 0.0 mm 234 W/m2
12:19 21.5 °C 14.5 °C 1020.0 hPa Calm   4 km/h 64.3% 0.0 mm 243 W/m2
12:24 21.4 °C 14.2 °C 1020.0 hPa SE 0.6 km/h 4 km/h 63.7% 0.0 mm 254 W/m2
12:29 21.4 °C 14.1 °C 1019.6 hPa SSE 0.1 km/h 4 km/h 63.3% 0.0 mm 263 W/m2
12:34 21.4 °C 14.1 °C 1020.0 hPa ESE 0.8 km/h 7.9 km/h 63% 0.0 mm 272 W/m2
12:39 21.4 °C 14.4 °C 1020.0 hPa East 0.4 km/h 4 km/h 64.7% 0.0 mm 283 W/m2
12:44 21.4 °C 14.2 °C 1019.6 hPa Calm   4 km/h 63.4% 0.0 mm 293 W/m2
12:49 22 °C 14.6 °C 1019.6 hPa Calm     62.6% 0.0 mm 305 W/m2
12:54 22.3 °C 14.8 °C 1019.6 hPa East 0.3 km/h 7.9 km/h 62.3% 0.0 mm 313 W/m2
12:59 22.3 °C 14.9 °C 1019.3 hPa SSE 1.7 km/h 12.2 km/h 63% 0.0 mm 327 W/m2
13:04 22.2 °C 14.7 °C 1019.3 hPa SSE 1 km/h 12.2 km/h 62.8% 0.0 mm 338 W/m2
13:09 22.1 °C 14.7 °C 1019.3 hPa SSE 0.2 km/h 4 km/h 63.1% 0.0 mm 348 W/m2
13:14 22.1 °C 14.9 °C 1019.3 hPa ESE 0.5 km/h 7.9 km/h 63.8% 0.0 mm 355 W/m2
13:19 22 °C 14.9 °C 1019.0 hPa ESE 0.5 km/h 4 km/h 64.3% 0.0 mm 362 W/m2
13:24 22 °C 15.2 °C 1019.0 hPa Calm   7.9 km/h 65.4% 0.0 mm 372 W/m2
13:29 22 °C 15.1 °C 1019.0 hPa Calm     64.9% 0.0 mm 385 W/m2
13:34 22.2 °C 15.1 °C 1019.0 hPa Calm     63.9% 0.0 mm 394 W/m2
13:39 22.2 °C 15.1 °C 1018.6 hPa Calm   4 km/h 64% 0.0 mm 404 W/m2
13:44 22.4 °C 14.7 °C 1018.6 hPa SSE 1.3 km/h 12.2 km/h 61.8% 0.0 mm 412 W/m2
13:49 22.6 °C 15.2 °C 1018.3 hPa SSE 1.3 km/h 7.9 km/h 63.2% 0.0 mm 418 W/m2
13:54 22.7 °C 15.3 °C 1018.6 hPa Calm   7.9 km/h 63.3% 0.0 mm 423 W/m2
13:59 22.8 °C 15 °C 1018.3 hPa South 0.4 km/h 7.9 km/h 61.7% 0.0 mm 425 W/m2
14:04 22.9 °C 15.2 °C 1018.0 hPa South 0.5 km/h 7.9 km/h 61.9% 0.0 mm 421 W/m2
14:09 22.6 °C 15.3 °C 1018.0 hPa ESE 0.5 km/h 4 km/h 63.2% 0.0 mm 421 W/m2
14:14 22.3 °C 14.7 °C 1018.0 hPa SSE 0.6 km/h 12.2 km/h 62% 0.0 mm 422 W/m2
14:17 22.5 °C 14.6 °C 1018.3 hPa Calm   7.9 km/h 61% 0.0 mm 423 W/m2
14:24 22.5 °C 15.4 °C 1018.0 hPa ENE 1.1 km/h 7.9 km/h 64.2% 0.0 mm 419 W/m2
14:29 22.9 °C 15.2 °C 1018.0 hPa SSE 1.2 km/h 7.9 km/h 62% 0.0 mm 422 W/m2
14:34 22.9 °C 14.9 °C 1017.6 hPa Calm   4 km/h 60.6% 0.0 mm 424 W/m2
14:39 23 °C 14.8 °C 1017.6 hPa South 1.3 km/h 12.2 km/h 60.2% 0.0 mm 423 W/m2
14:44 23.1 °C 14.6 °C 1017.6 hPa Calm     58.9% 0.0 mm 422 W/m2
14:49 23.6 °C 15.2 °C 1017.3 hPa Calm   4 km/h 59.4% 0.0 mm 423 W/m2
14:54 23.9 °C 15.3 °C 1017.3 hPa SSE 0.5 km/h 12.2 km/h 58.6% 0.0 mm 423 W/m2
14:59 23.9 °C 15.1 °C 1017.3 hPa SSW 0.3 km/h 4 km/h 57.9% 0.0 mm 423 W/m2
15:03 24 °C 15.3 °C 1016.9 hPa SSE 1.4 km/h 7.9 km/h 58.1% 0.0 mm 419 W/m2
15:07 24.1 °C 15.1 °C 1016.9 hPa SSE 2.1 km/h 7.9 km/h 57.3% 0.0 mm 393 W/m2
15:14 24.3 °C 15 °C 1016.9 hPa South 0.9 km/h 7.9 km/h 56.2% 0.0 mm 404 W/m2
15:19 24.4 °C 15.2 °C 1016.9 hPa SE 1.5 km/h 7.9 km/h 56.4% 0.0 mm 405 W/m2
15:24 24.4 °C 14.9 °C 1016.9 hPa South 0.9 km/h 7.9 km/h 55.5% 0.0 mm 402 W/m2
15:29 24.3 °C 14.8 °C 1016.9 hPa SSE 0.7 km/h 7.9 km/h 55.4% 0.0 mm 402 W/m2
15:34 24.2 °C 14.3 °C 1016.9 hPa SSE 0.7 km/h 7.9 km/h 54% 0.0 mm 400 W/m2
15:39 24.2 °C 14.4 °C 1016.9 hPa SSW 0.9 km/h 12.2 km/h 54.2% 0.0 mm 395 W/m2
15:44 24.3 °C 14.6 °C 1016.6 hPa SSE 0.4 km/h 7.9 km/h 54.7% 0.0 mm 394 W/m2
15:49 24.3 °C 14.4 °C 1016.6 hPa SSE 2.9 km/h 7.9 km/h 54.1% 0.0 mm 392 W/m2
15:54 24.2 °C 14.3 °C 1016.6 hPa SE 0.3 km/h 7.9 km/h 54% 0.0 mm 387 W/m2
15:59 24.2 °C 14.3 °C 1016.6 hPa SSE 2.3 km/h 12.2 km/h 53.9% 0.0 mm 384 W/m2
16:04 24.2 °C 14.1 °C 1016.6 hPa Calm   4 km/h 53.4% 0.0 mm 373 W/m2
16:09 24.3 °C 14.2 °C 1016.3 hPa SE 1.4 km/h 7.9 km/h 53.3% 0.0 mm 371 W/m2
16:14 24.4 °C 14.1 °C 1016.3 hPa SSE 0.3 km/h 7.9 km/h 52.6% 0.0 mm 301 W/m2
16:19 24.4 °C 14.2 °C 1016.6 hPa South 0.5 km/h 7.9 km/h 52.8% 0.0 mm 356 W/m2
16:24 24.4 °C 13.9 °C 1016.6 hPa SSE 0.3 km/h 7.9 km/h 52.1% 0.0 mm 313 W/m2
16:29 24.3 °C 13.9 °C 1016.6 hPa South 1.6 km/h 7.9 km/h 52.4% 0.0 mm 334 W/m2
16:34 24 °C 13.9 °C 1016.3 hPa SSW 0.1 km/h 7.9 km/h 53.4% 0.0 mm 331 W/m2
16:39 23.9 °C 14.2 °C 1016.3 hPa South 1.2 km/h 7.9 km/h 54.6% 0.0 mm 328 W/m2
16:42 23.8 °C 14.3 °C 1016.3 hPa Calm   4 km/h 55.2% 0.0 mm 320 W/m2
16:49 23.6 °C 14.1 °C 1016.3 hPa SSE 0.2 km/h 4 km/h 55.6% 0.0 mm 227 W/m2
16:54 23 °C 13.8 °C 1016.3 hPa South 0.5 km/h 7.9 km/h 56.3% 0.0 mm 72 W/m2
16:59 22.8 °C 14.4 °C 1016.3 hPa Calm     58.7% 0.0 mm 51 W/m2
17:04 22.6 °C 14.2 °C 1016.3 hPa Calm     59% 0.0 mm 49 W/m2
17:09 22 °C 13.6 °C 1016.3 hPa Calm   4 km/h 59% 0.0 mm 46 W/m2
17:14 21.2 °C 13.1 °C 1016.3 hPa Calm     60% 0.0 mm 44 W/m2
17:19 21.2 °C 13.4 °C 1016.3 hPa Calm     61.1% 0.0 mm 42 W/m2
17:24 21.1 °C 13.5 °C 1016.3 hPa Calm     62% 0.0 mm 41 W/m2
17:29 20.8 °C 13.3 °C 1016.3 hPa Calm     62.2% 0.0 mm 39 W/m2
17:34 20.3 °C 13.2 °C 1016.3 hPa Calm     63.6% 0.0 mm 37 W/m2
17:39 20.3 °C 13.3 °C 1016.3 hPa Calm     64.3% 0.0 mm 35 W/m2
17:44 20.2 °C 13.5 °C 1016.3 hPa Calm     65.7% 0.0 mm 33 W/m2
17:49 20 °C 13.2 °C 1016.3 hPa Calm     65% 0.0 mm 31 W/m2
17:54 19.5 °C 12.8 °C 1016.3 hPa Calm     65.2% 0.0 mm 29 W/m2
17:59 19.5 °C 12.7 °C 1016.3 hPa Calm     64.9% 0.0 mm 26 W/m2
18:04 19.4 °C 12.5 °C 1016.3 hPa Calm     64.2% 0.0 mm 24 W/m2
18:09 19.4 °C 12.4 °C 1016.3 hPa Calm     64% 0.0 mm 22 W/m2
18:14 19.3 °C 12.4 °C 1016.3 hPa Calm     64.3% 0.0 mm 19 W/m2
18:19 19.3 °C 12.7 °C 1015.9 hPa Calm     65.4% 0.0 mm 17 W/m2
18:24 19.3 °C 12.6 °C 1015.9 hPa Calm     64.9% 0.0 mm 12 W/m2
18:29 19.3 °C 12.5 °C 1015.9 hPa Calm     64.7% 0.0 mm 9 W/m2
18:34 19.2 °C 12.7 °C 1016.3 hPa Calm     66% 0.0 mm 6 W/m2
18:39 19.2 °C 13 °C 1015.9 hPa Calm     67.4% 0.0 mm 4 W/m2
18:44 19.1 °C 13.2 °C 1016.3 hPa Calm     68.9% 0.0 mm 0 W/m2
18:49 18.9 °C 13.3 °C 1016.3 hPa Calm     70.1% 0.0 mm 0 W/m2
18:54 18.1 °C 12.6 °C 1016.3 hPa Calm     70.4% 0.0 mm 0 W/m2
18:59 18.1 °C 12.8 °C 1016.3 hPa Calm     71.2% 0.0 mm 0 W/m2
19:04 18.1 °C 12.8 °C 1016.3 hPa Calm   4 km/h 71.2% 0.0 mm 0 W/m2
19:09 18.1 °C 12.9 °C 1016.3 hPa Calm     71.4% 0.0 mm 0 W/m2
19:14 18 °C 12.8 °C 1016.3 hPa Calm     71.3% 0.0 mm 0 W/m2
19:19 18 °C 12.3 °C 1016.3 hPa Calm     69.3% 0.0 mm 0 W/m2
19:24 18.1 °C 12.3 °C 1016.3 hPa Calm     69% 0.0 mm 0 W/m2
19:29 18.3 °C 12.1 °C 1016.6 hPa Calm     67.4% 0.0 mm 0 W/m2
19:34 18.7 °C 12.4 °C 1016.6 hPa Calm     67% 0.0 mm 0 W/m2
19:39 18.7 °C 12.4 °C 1016.6 hPa Calm     67% 0.0 mm 0 W/m2
19:44 18.7 °C 12.4 °C 1016.6 hPa Calm     67% 0.0 mm 0 W/m2
19:49 18.7 °C 12.8 °C 1016.6 hPa Calm     68.3% 0.0 mm 0 W/m2
19:54 18.7 °C 12.9 °C 1016.6 hPa Calm     69.1% 0.0 mm 0 W/m2
19:59 18.7 °C 12.9 °C 1016.6 hPa Calm     69.1% 0.0 mm 0 W/m2
20:04 18.7 °C 13.1 °C 1017.3 hPa Calm     70.1% 0.0 mm 0 W/m2
20:09 18.6 °C 13.2 °C 1017.3 hPa Calm     70.9% 0.0 mm 0 W/m2
20:14 18.3 °C 13.1 °C 1017.3 hPa Calm     71.7% 0.0 mm 0 W/m2
20:19 18.2 °C 13 °C 1017.3 hPa Calm     71.4% 0.0 mm 0 W/m2
20:24 18.2 °C 12.6 °C 1016.9 hPa Calm     70% 0.0 mm 0 W/m2
20:25 18.2 °C 12.9 °C 1016.9 hPa Calm     71% 0.0 mm 0 W/m2
20:34 18.2 °C 12.7 °C 1018.3 hPa Calm     70.5% 0.0 mm 0 W/m2
20:39 18.2 °C 12.6 °C 1016.9 hPa Calm     69.9% 0.0 mm 0 W/m2
20:44 18.2 °C 12.4 °C 1016.9 hPa Calm     68.9% 0.0 mm 0 W/m2
20:49 18.3 °C 12.3 °C 1016.9 hPa Calm     68.1% 0.0 mm 0 W/m2
20:54 18.4 °C 12.7 °C 1016.9 hPa Calm     69.3% 0.0 mm 0 W/m2
20:59 18.3 °C 12.5 °C 1016.9 hPa Calm     69% 0.0 mm 0 W/m2
21:04 18.3 °C 12.5 °C 1016.9 hPa Calm     69.1% 0.0 mm 0 W/m2
21:09 18.3 °C 12.7 °C 1016.9 hPa Calm     70% 0.0 mm 0 W/m2
21:14 18.1 °C 12.5 °C 1016.6 hPa Calm     70% 0.0 mm 0 W/m2
21:19 18.1 °C 12.3 °C 1016.6 hPa Calm     69.4% 0.0 mm 0 W/m2
21:24 18.1 °C 12.3 °C 1016.9 hPa Calm     69.3% 0.0 mm 0 W/m2
21:29 18.1 °C 12.5 °C 1016.9 hPa Calm     70% 0.0 mm 0 W/m2
21:34 18 °C 12.5 °C 1016.9 hPa Calm     70.4% 0.0 mm 0 W/m2
21:39 17.9 °C 12.6 °C 1016.9 hPa Calm     71% 0.0 mm 0 W/m2
21:44 17.9 °C 12.6 °C 1016.9 hPa Calm     70.9% 0.0 mm 0 W/m2
21:49 17.9 °C 12.5 °C 1016.9 hPa Calm     70.4% 0.0 mm 0 W/m2
21:54 17.9 °C 12.4 °C 1016.9 hPa Calm     69.9% 0.0 mm 0 W/m2
21:59 17.9 °C 12.4 °C 1016.9 hPa Calm     70.2% 0.0 mm 0 W/m2
22:04 17.8 °C 12.2 °C 1016.9 hPa Calm     69.4% 0.0 mm 0 W/m2
22:09 17.8 °C 12 °C 1016.9 hPa Calm     68.6% 0.0 mm 0 W/m2
22:14 17.9 °C 12.1 °C 1016.9 hPa Calm     68.8% 0.0 mm 0 W/m2
22:19 17.9 °C 12 °C 1016.9 hPa Calm     68.3% 0.0 mm 0 W/m2
22:24 17.9 °C 11.9 °C 1016.9 hPa Calm     67.9% 0.0 mm 0 W/m2
22:29 17.9 °C 11.7 °C 1016.9 hPa Calm     66.8% 0.0 mm 0 W/m2
22:34 18.1 °C 11.8 °C 1016.9 hPa Calm     66.4% 0.0 mm 0 W/m2
22:39 18.1 °C 12.2 °C 1016.9 hPa Calm     68.5% 0.0 mm 0 W/m2
22:44 18 °C 12.1 °C 1016.9 hPa Calm     68.2% 0.0 mm 0 W/m2
22:49 18 °C 12.2 °C 1017.3 hPa Calm     68.9% 0.0 mm 0 W/m2
22:54 17.8 °C 12.1 °C 1016.9 hPa Calm     69.3% 0.0 mm 0 W/m2
22:59 17.7 °C 12.2 °C 1016.9 hPa Calm     69.9% 0.0 mm 0 W/m2
23:04 17.7 °C 12.2 °C 1016.9 hPa Calm     70% 0.0 mm 0 W/m2
23:09 17.6 °C 12.1 °C 1016.9 hPa Calm     70% 0.0 mm 0 W/m2
23:14 17.2 °C 11.8 °C 1016.9 hPa Calm     70.6% 0.0 mm 0 W/m2
23:19 17.1 °C 11.5 °C 1016.9 hPa Calm     69.3% 0.0 mm 0 W/m2
23:24 17.1 °C 11.4 °C 1017.3 hPa Calm     68.9% 0.0 mm 0 W/m2
23:29 17.2 °C 11.4 °C 1017.3 hPa Calm     68.7% 0.0 mm 0 W/m2
23:34 17.2 °C 11.5 °C 1017.3 hPa Calm     69% 0.0 mm 0 W/m2
23:39 17.2 °C 11.6 °C 1016.9 hPa Calm     69.4% 0.0 mm 0 W/m2
23:44 17.2 °C 11.4 °C 1016.9 hPa Calm     69% 0.0 mm 0 W/m2
23:49 17.1 °C 11.7 °C 1016.9 hPa Calm     70.6% 0.0 mm 0 W/m2
23:54 16.7 °C 11.4 °C 1016.9 hPa Calm     70.7% 0.0 mm 0 W/m2
23:59 16.5 °C 10.9 °C 1016.9 hPa Calm     69.5% 0.0 mm 0 W/m2
Juneau County Weather
Compliments of Weather Underground - 2 mb